sensor_id;sensor_type;location;lat;lon;timestamp;pressure;altitude;pressure_sealevel;temperature;humidity
75543;BME280;64129;53.508;10.476;2023-01-25T00:00:21;103357.47;;;0.38;79.68
75543;BME280;64129;53.508;10.476;2023-01-25T00:02:47;103353.25;;;0.40;79.40
75543;BME280;64129;53.508;10.476;2023-01-25T00:05:14;103350.16;;;0.32;79.79
75543;BME280;64129;53.508;10.476;2023-01-25T00:07:40;103351.97;;;0.48;79.48
75543;BME280;64129;53.508;10.476;2023-01-25T00:10:07;103337.88;;;0.31;80.06
75543;BME280;64129;53.508;10.476;2023-01-25T00:12:34;103336.81;;;0.27;80.35
75543;BME280;64129;53.508;10.476;2023-01-25T00:15:00;103332.03;;;0.20;80.72
75543;BME280;64129;53.508;10.476;2023-01-25T00:17:27;103332.47;;;0.13;81.17
75543;BME280;64129;53.508;10.476;2023-01-25T00:19:53;103330.84;;;0.15;80.72
75543;BME280;64129;53.508;10.476;2023-01-25T00:22:20;103328.16;;;0.28;80.63
75543;BME280;64129;53.508;10.476;2023-01-25T00:24:46;103322.28;;;0.03;81.46
75543;BME280;64129;53.508;10.476;2023-01-25T00:27:13;103327.25;;;0.13;80.59
75543;BME280;64129;53.508;10.476;2023-01-25T00:29:39;103317.88;;;0.31;80.31
75543;BME280;64129;53.508;10.476;2023-01-25T00:32:48;103321.63;;;0.35;79.69
75543;BME280;64129;53.508;10.476;2023-01-25T00:35:13;103321.56;;;0.20;80.04
75543;BME280;64129;53.508;10.476;2023-01-25T00:37:46;103322.38;;;0.19;79.67
75543;BME280;64129;53.508;10.476;2023-01-25T00:40:16;103328.16;;;0.14;79.73
75543;BME280;64129;53.508;10.476;2023-01-25T00:42:43;103324.56;;;0.26;79.31
75543;BME280;64129;53.508;10.476;2023-01-25T00:45:10;103319.50;;;0.00;80.10
75543;BME280;64129;53.508;10.476;2023-01-25T00:47:37;103316.16;;;-0.25;80.93
75543;BME280;64129;53.508;10.476;2023-01-25T00:50:06;103303.59;;;-0.03;80.47
75543;BME280;64129;53.508;10.476;2023-01-25T00:52:33;103300.16;;;-0.17;81.04
75543;BME280;64129;53.508;10.476;2023-01-25T00:54:59;103305.84;;;-0.09;80.92
75543;BME280;64129;53.508;10.476;2023-01-25T00:57:26;103297.63;;;-0.15;80.53
75543;BME280;64129;53.508;10.476;2023-01-25T00:59:53;103299.31;;;0.12;80.48
75543;BME280;64129;53.508;10.476;2023-01-25T01:02:19;103293.84;;;-0.20;80.67
75543;BME280;64129;53.508;10.476;2023-01-25T01:04:45;103289.88;;;-0.28;80.80
75543;BME280;64129;53.508;10.476;2023-01-25T01:07:13;103293.28;;;-0.29;81.73
75543;BME280;64129;53.508;10.476;2023-01-25T01:09:40;103300.41;;;0.01;80.94
75543;BME280;64129;53.508;10.476;2023-01-25T01:12:07;103292.84;;;0.06;80.65
75543;BME280;64129;53.508;10.476;2023-01-25T01:14:33;103288.56;;;-0.07;80.65
75543;BME280;64129;53.508;10.476;2023-01-25T01:17:00;103285.75;;;-0.25;81.21
75543;BME280;64129;53.508;10.476;2023-01-25T01:19:26;103287.22;;;-0.01;80.87
75543;BME280;64129;53.508;10.476;2023-01-25T01:21:53;103287.25;;;0.14;80.09
75543;BME280;64129;53.508;10.476;2023-01-25T01:24:20;103291.03;;;0.05;80.43
75543;BME280;64129;53.508;10.476;2023-01-25T01:26:47;103291.47;;;0.12;79.93
75543;BME280;64129;53.508;10.476;2023-01-25T01:29:14;103296.97;;;0.02;80.46
75543;BME280;64129;53.508;10.476;2023-01-25T01:31:40;103298.16;;;0.22;79.61
75543;BME280;64129;53.508;10.476;2023-01-25T01:34:17;103289.41;;;0.21;79.72
75543;BME280;64129;53.508;10.476;2023-01-25T01:36:44;103291.16;;;-0.07;80.26
75543;BME280;64129;53.508;10.476;2023-01-25T01:39:10;103288.56;;;-0.07;80.58
75543;BME280;64129;53.508;10.476;2023-01-25T01:41:37;103283.94;;;-0.26;81.23
75543;BME280;64129;53.508;10.476;2023-01-25T01:44:05;103282.00;;;-0.01;80.42
75543;BME280;64129;53.508;10.476;2023-01-25T01:46:34;103273.97;;;-0.18;81.18
75543;BME280;64129;53.508;10.476;2023-01-25T01:49:34;103273.06;;;-0.04;80.52
75543;BME280;64129;53.508;10.476;2023-01-25T01:52:12;103276.19;;;-0.24;80.70
75543;BME280;64129;53.508;10.476;2023-01-25T01:54:48;103270.44;;;-0.04;80.65
75543;BME280;64129;53.508;10.476;2023-01-25T01:57:21;103279.38;;;-0.01;80.40
75543;BME280;64129;53.508;10.476;2023-01-25T02:02:15;103279.81;;;-0.22;80.96
75543;BME280;64129;53.508;10.476;2023-01-25T02:04:44;103278.78;;;0.04;80.59
75543;BME280;64129;53.508;10.476;2023-01-25T02:07:17;103271.81;;;-0.39;81.59
75543;BME280;64129;53.508;10.476;2023-01-25T02:09:47;103262.25;;;-0.10;81.08
75543;BME280;64129;53.508;10.476;2023-01-25T02:12:17;103256.84;;;-0.13;81.06
75543;BME280;64129;53.508;10.476;2023-01-25T02:14:48;103259.19;;;-0.46;81.67
75543;BME280;64129;53.508;10.476;2023-01-25T02:17:24;103253.41;;;-0.27;82.02
75543;BME280;64129;53.508;10.476;2023-01-25T02:20:20;103252.88;;;-0.21;80.84
75543;BME280;64129;53.508;10.476;2023-01-25T02:22:59;103241.00;;;-0.31;81.04
75543;BME280;64129;53.508;10.476;2023-01-25T02:25:27;103246.69;;;-0.09;80.80
75543;BME280;64129;53.508;10.476;2023-01-25T02:27:58;103243.06;;;-0.25;80.76
75543;BME280;64129;53.508;10.476;2023-01-25T02:30:26;103245.59;;;-0.12;81.04
75543;BME280;64129;53.508;10.476;2023-01-25T02:32:53;103251.06;;;-0.22;80.68
75543;BME280;64129;53.508;10.476;2023-01-25T02:35:38;103257.41;;;-0.47;81.76
75543;BME280;64129;53.508;10.476;2023-01-25T02:38:06;103248.22;;;-0.40;80.99
75543;BME280;64129;53.508;10.476;2023-01-25T02:40:40;103250.63;;;-0.30;80.00
75543;BME280;64129;53.508;10.476;2023-01-25T02:43:10;103244.69;;;-0.27;80.08
75543;BME280;64129;53.508;10.476;2023-01-25T02:45:36;103243.44;;;-0.19;80.12
75543;BME280;64129;53.508;10.476;2023-01-25T02:48:03;103245.75;;;-0.24;80.26
75543;BME280;64129;53.508;10.476;2023-01-25T02:50:30;103242.34;;;-0.23;80.32
75543;BME280;64129;53.508;10.476;2023-01-25T02:52:56;103235.59;;;-0.19;80.58
75543;BME280;64129;53.508;10.476;2023-01-25T02:55:23;103231.91;;;-0.23;79.95
75543;BME280;64129;53.508;10.476;2023-01-25T02:57:49;103226.03;;;-0.34;80.19
75543;BME280;64129;53.508;10.476;2023-01-25T03:00:16;103224.97;;;-0.22;80.56
75543;BME280;64129;53.508;10.476;2023-01-25T03:02:43;103213.53;;;-0.24;79.99
75543;BME280;64129;53.508;10.476;2023-01-25T03:05:10;103214.97;;;-0.29;79.48
75543;BME280;64129;53.508;10.476;2023-01-25T03:07:37;103205.44;;;-0.14;79.63
75543;BME280;64129;53.508;10.476;2023-01-25T03:10:04;103207.94;;;-0.30;79.15
75543;BME280;64129;53.508;10.476;2023-01-25T03:12:33;103208.00;;;-0.44;79.31
75543;BME280;64129;53.508;10.476;2023-01-25T03:14:59;103206.06;;;-0.61;79.74
75543;BME280;64129;53.508;10.476;2023-01-25T03:17:26;103207.63;;;-0.50;79.08
75543;BME280;64129;53.508;10.476;2023-01-25T03:19:52;103201.91;;;-0.29;79.26
75543;BME280;64129;53.508;10.476;2023-01-25T03:22:19;103197.09;;;-0.37;79.70
75543;BME280;64129;53.508;10.476;2023-01-25T03:24:47;103202.31;;;-0.51;80.26
75543;BME280;64129;53.508;10.476;2023-01-25T03:27:14;103190.91;;;-0.39;78.77
75543;BME280;64129;53.508;10.476;2023-01-25T03:29:50;103183.03;;;-0.68;79.30
75543;BME280;64129;53.508;10.476;2023-01-25T03:32:23;103183.94;;;-0.53;79.17
75543;BME280;64129;53.508;10.476;2023-01-25T03:34:50;103192.34;;;-0.72;79.59
75543;BME280;64129;53.508;10.476;2023-01-25T03:37:18;103188.53;;;-0.91;79.74
75543;BME280;64129;53.508;10.476;2023-01-25T03:39:46;103179.41;;;-0.70;80.02
75543;BME280;64129;53.508;10.476;2023-01-25T03:42:13;103170.91;;;-0.53;78.91
75543;BME280;64129;53.508;10.476;2023-01-25T03:44:41;103182.16;;;-0.54;79.58
75543;BME280;64129;53.508;10.476;2023-01-25T03:47:07;103171.09;;;-0.78;79.68
75543;BME280;64129;53.508;10.476;2023-01-25T03:49:34;103175.41;;;-0.78;79.34
75543;BME280;64129;53.508;10.476;2023-01-25T03:52:02;103177.41;;;-0.74;79.47
75543;BME280;64129;53.508;10.476;2023-01-25T03:54:34;103174.00;;;-0.73;79.71
75543;BME280;64129;53.508;10.476;2023-01-25T03:57:01;103176.09;;;-0.96;80.26
75543;BME280;64129;53.508;10.476;2023-01-25T03:59:31;103182.06;;;-0.83;79.77
75543;BME280;64129;53.508;10.476;2023-01-25T04:01:57;103179.03;;;-0.76;79.21
75543;BME280;64129;53.508;10.476;2023-01-25T04:04:24;103172.06;;;-0.90;79.48
75543;BME280;64129;53.508;10.476;2023-01-25T04:06:51;103174.16;;;-0.85;80.04
75543;BME280;64129;53.508;10.476;2023-01-25T04:09:19;103170.19;;;-0.78;79.50
75543;BME280;64129;53.508;10.476;2023-01-25T04:11:50;103168.72;;;-0.60;79.08
75543;BME280;64129;53.508;10.476;2023-01-25T04:14:17;103168.03;;;-0.85;79.42
75543;BME280;64129;53.508;10.476;2023-01-25T04:16:58;103157.22;;;-0.49;79.27
75543;BME280;64129;53.508;10.476;2023-01-25T04:19:31;103157.69;;;-0.56;78.74
75543;BME280;64129;53.508;10.476;2023-01-25T04:21:59;103155.69;;;-0.60;79.01
75543;BME280;64129;53.508;10.476;2023-01-25T04:24:31;103150.66;;;-0.85;79.22
75543;BME280;64129;53.508;10.476;2023-01-25T04:26:58;103149.69;;;-0.87;79.53
75543;BME280;64129;53.508;10.476;2023-01-25T04:29:26;103144.75;;;-0.82;79.92
75543;BME280;64129;53.508;10.476;2023-01-25T04:32:06;103146.09;;;-0.74;79.47
75543;BME280;64129;53.508;10.476;2023-01-25T04:34:33;103146.97;;;-0.60;79.15
75543;BME280;64129;53.508;10.476;2023-01-25T04:36:59;103140.75;;;-0.63;79.76
75543;BME280;64129;53.508;10.476;2023-01-25T04:39:30;103140.03;;;-0.60;79.22
75543;BME280;64129;53.508;10.476;2023-01-25T04:41:56;103141.06;;;-0.71;79.71
75543;BME280;64129;53.508;10.476;2023-01-25T04:44:23;103135.84;;;-0.71;79.09
75543;BME280;64129;53.508;10.476;2023-01-25T04:46:49;103128.97;;;-0.56;78.84
75543;BME280;64129;53.508;10.476;2023-01-25T04:49:17;103128.13;;;-0.70;78.98
75543;BME280;64129;53.508;10.476;2023-01-25T04:51:43;103120.91;;;-0.74;79.17
75543;BME280;64129;53.508;10.476;2023-01-25T04:54:10;103115.88;;;-0.85;79.58
75543;BME280;64129;53.508;10.476;2023-01-25T04:56:36;103116.78;;;-0.70;79.55
75543;BME280;64129;53.508;10.476;2023-01-25T04:59:03;103118.63;;;-0.54;79.18
75543;BME280;64129;53.508;10.476;2023-01-25T05:01:31;103110.19;;;-0.78;79.41
75543;BME280;64129;53.508;10.476;2023-01-25T05:03:59;103116.19;;;-0.66;79.48
75543;BME280;64129;53.508;10.476;2023-01-25T05:06:33;103111.09;;;-0.78;79.59
75543;BME280;64129;53.508;10.476;2023-01-25T05:09:00;103112.19;;;-0.74;79.87
75543;BME280;64129;53.508;10.476;2023-01-25T05:11:26;103109.91;;;-0.55;79.32
75543;BME280;64129;53.508;10.476;2023-01-25T05:13:59;103105.84;;;-0.65;79.03
75543;BME280;64129;53.508;10.476;2023-01-25T05:16:29;103093.44;;;-0.54;79.22
75543;BME280;64129;53.508;10.476;2023-01-25T05:18:57;103101.34;;;-0.67;79.33
75543;BME280;64129;53.508;10.476;2023-01-25T05:21:50;103103.00;;;-0.82;79.83
75543;BME280;64129;53.508;10.476;2023-01-25T05:24:29;103102.03;;;-0.70;79.66
75543;BME280;64129;53.508;10.476;2023-01-25T05:27:00;103101.84;;;-0.87;80.04
75543;BME280;64129;53.508;10.476;2023-01-25T05:29:36;103092.94;;;-0.76;79.56
75543;BME280;64129;53.508;10.476;2023-01-25T05:32:09;103093.84;;;-0.76;80.06
75543;BME280;64129;53.508;10.476;2023-01-25T05:34:37;103092.84;;;-0.78;79.35
75543;BME280;64129;53.508;10.476;2023-01-25T05:37:06;103086.69;;;-0.65;79.90
75543;BME280;64129;53.508;10.476;2023-01-25T05:39:35;103090.31;;;-0.76;79.74
75543;BME280;64129;53.508;10.476;2023-01-25T05:42:02;103096.44;;;-0.90;80.08
75543;BME280;64129;53.508;10.476;2023-01-25T05:44:28;103087.09;;;-0.72;79.61
75543;BME280;64129;53.508;10.476;2023-01-25T05:46:55;103094.41;;;-0.52;79.03
75543;BME280;64129;53.508;10.476;2023-01-25T05:49:22;103091.00;;;-0.66;79.67
75543;BME280;64129;53.508;10.476;2023-01-25T05:51:48;103084.38;;;-0.88;79.80
75543;BME280;64129;53.508;10.476;2023-01-25T05:54:16;103081.59;;;-0.91;79.76
75543;BME280;64129;53.508;10.476;2023-01-25T05:56:49;103077.91;;;-0.80;80.19
75543;BME280;64129;53.508;10.476;2023-01-25T05:59:16;103075.75;;;-0.87;80.52
75543;BME280;64129;53.508;10.476;2023-01-25T06:01:43;103070.72;;;-0.84;79.98
75543;BME280;64129;53.508;10.476;2023-01-25T06:04:14;103066.03;;;-0.75;79.85
75543;BME280;64129;53.508;10.476;2023-01-25T06:06:41;103060.47;;;-0.81;80.37
75543;BME280;64129;53.508;10.476;2023-01-25T06:09:12;103061.44;;;-0.79;80.07
75543;BME280;64129;53.508;10.476;2023-01-25T06:11:42;103059.38;;;-0.70;79.74
75543;BME280;64129;53.508;10.476;2023-01-25T06:14:10;103060.38;;;-0.83;80.40
75543;BME280;64129;53.508;10.476;2023-01-25T06:16:37;103065.97;;;-0.62;79.95
75543;BME280;64129;53.508;10.476;2023-01-25T06:19:26;103068.59;;;-0.62;79.72
75543;BME280;64129;53.508;10.476;2023-01-25T06:22:13;103057.50;;;-0.73;80.39
75543;BME280;64129;53.508;10.476;2023-01-25T06:24:40;103056.91;;;-0.69;80.40
75543;BME280;64129;53.508;10.476;2023-01-25T06:27:06;103050.38;;;-0.75;80.55
75543;BME280;64129;53.508;10.476;2023-01-25T06:29:33;103058.03;;;-0.78;80.74
75543;BME280;64129;53.508;10.476;2023-01-25T06:32:00;103060.81;;;-0.90;80.85
75543;BME280;64129;53.508;10.476;2023-01-25T06:34:26;103065.81;;;-1.08;80.89
75543;BME280;64129;53.508;10.476;2023-01-25T06:36:53;103059.56;;;-0.97;81.28
75543;BME280;64129;53.508;10.476;2023-01-25T06:39:19;103057.16;;;-1.07;81.36
75543;BME280;64129;53.508;10.476;2023-01-25T06:41:46;103059.59;;;-0.67;80.24
75543;BME280;64129;53.508;10.476;2023-01-25T06:44:12;103068.56;;;-0.77;80.51
75543;BME280;64129;53.508;10.476;2023-01-25T06:46:39;103062.81;;;-0.71;80.63
75543;BME280;64129;53.508;10.476;2023-01-25T06:49:05;103062.81;;;-0.71;80.72
75543;BME280;64129;53.508;10.476;2023-01-25T06:51:32;103073.25;;;-0.56;80.00
75543;BME280;64129;53.508;10.476;2023-01-25T06:54:01;103071.44;;;-0.72;80.74
75543;BME280;64129;53.508;10.476;2023-01-25T06:56:27;103070.38;;;-0.61;80.13
75543;BME280;64129;53.508;10.476;2023-01-25T06:58:54;103073.25;;;-0.56;79.69
75543;BME280;64129;53.508;10.476;2023-01-25T07:01:22;103071.06;;;-0.78;80.95
75543;BME280;64129;53.508;10.476;2023-01-25T07:03:54;103067.16;;;-0.57;80.34
75543;BME280;64129;53.508;10.476;2023-01-25T07:06:21;103062.22;;;-0.67;80.60
75543;BME280;64129;53.508;10.476;2023-01-25T07:08:48;103061.72;;;-0.75;80.79
75543;BME280;64129;53.508;10.476;2023-01-25T07:11:15;103050.38;;;-0.75;81.45
75543;BME280;64129;53.508;10.476;2023-01-25T07:13:45;103055.28;;;-0.67;81.11
75543;BME280;64129;53.508;10.476;2023-01-25T07:16:15;103051.47;;;-0.86;80.97
75543;BME280;64129;53.508;10.476;2023-01-25T07:18:42;103045.63;;;-0.82;81.17
75543;BME280;64129;53.508;10.476;2023-01-25T07:21:20;103045.06;;;-0.91;81.10
75543;BME280;64129;53.508;10.476;2023-01-25T07:23:50;103045.44;;;-0.85;81.14
75543;BME280;64129;53.508;10.476;2023-01-25T07:26:23;103046.16;;;-0.88;80.71
75543;BME280;64129;53.508;10.476;2023-01-25T07:28:51;103041.94;;;-0.71;80.64
75543;BME280;64129;53.508;10.476;2023-01-25T07:31:18;103031.94;;;-0.78;80.63
75543;BME280;64129;53.508;10.476;2023-01-25T07:33:50;103043.38;;;-0.76;81.11
75543;BME280;64129;53.508;10.476;2023-01-25T07:36:16;103035.63;;;-0.89;80.76
75543;BME280;64129;53.508;10.476;2023-01-25T07:38:43;103026.38;;;-0.84;81.28
75543;BME280;64129;53.508;10.476;2023-01-25T07:41:10;103031.31;;;-0.74;81.07
75543;BME280;64129;53.508;10.476;2023-01-25T07:43:36;103017.63;;;-0.70;81.10
75543;BME280;64129;53.508;10.476;2023-01-25T07:46:05;103020.25;;;-0.70;80.86
75543;BME280;64129;53.508;10.476;2023-01-25T07:48:32;103006.69;;;-0.65;80.88
75543;BME280;64129;53.508;10.476;2023-01-25T07:51:02;103013.06;;;-0.74;81.07
75543;BME280;64129;53.508;10.476;2023-01-25T07:53:39;103019.53;;;-0.82;80.98
75543;BME280;64129;53.508;10.476;2023-01-25T07:56:07;103014.59;;;-0.63;81.05
75543;BME280;64129;53.508;10.476;2023-01-25T07:58:34;103010.63;;;-0.71;81.15
75543;BME280;64129;53.508;10.476;2023-01-25T08:01:11;103004.34;;;-0.60;80.58
75543;BME280;64129;53.508;10.476;2023-01-25T08:03:38;102997.16;;;-0.64;80.51
75543;BME280;64129;53.508;10.476;2023-01-25T08:06:05;102998.22;;;-0.60;80.33
75543;BME280;64129;53.508;10.476;2023-01-25T08:08:34;102990.41;;;-0.60;80.67
75543;BME280;64129;53.508;10.476;2023-01-25T08:11:07;102986.72;;;-0.64;80.44
75543;BME280;64129;53.508;10.476;2023-01-25T08:13:34;102981.75;;;-0.74;80.60
75543;BME280;64129;53.508;10.476;2023-01-25T08:16:01;102984.13;;;-0.64;80.46
75543;BME280;64129;53.508;10.476;2023-01-25T08:18:27;102981.31;;;-0.67;80.85
75543;BME280;64129;53.508;10.476;2023-01-25T08:20:57;102969.97;;;-0.82;81.21
75543;BME280;64129;53.508;10.476;2023-01-25T08:23:25;102971.59;;;-0.55;80.76
75543;BME280;64129;53.508;10.476;2023-01-25T08:25:52;102967.81;;;-0.60;80.16
75543;BME280;64129;53.508;10.476;2023-01-25T08:28:18;102955.63;;;-0.45;80.34
75543;BME280;64129;53.508;10.476;2023-01-25T08:30:45;102957.38;;;-0.75;81.13
75543;BME280;64129;53.508;10.476;2023-01-25T08:33:22;102955.66;;;-0.59;80.83
75543;BME280;64129;53.508;10.476;2023-01-25T08:35:55;102963.66;;;-0.71;80.58
75543;BME280;64129;53.508;10.476;2023-01-25T08:38:24;102960.00;;;-0.60;80.70
75543;BME280;64129;53.508;10.476;2023-01-25T08:40:51;102958.28;;;-0.74;81.29
75543;BME280;64129;53.508;10.476;2023-01-25T08:43:17;102953.06;;;-0.74;80.82
75543;BME280;64129;53.508;10.476;2023-01-25T08:45:44;102953.50;;;-0.81;80.98
75543;BME280;64129;53.508;10.476;2023-01-25T08:48:11;102956.13;;;-0.81;81.60
75543;BME280;64129;53.508;10.476;2023-01-25T08:50:45;102945.41;;;-0.71;81.22
75543;BME280;64129;53.508;10.476;2023-01-25T08:53:12;102951.44;;;-0.72;81.47
75543;BME280;64129;53.508;10.476;2023-01-25T08:55:39;102949.00;;;-0.54;81.27
75543;BME280;64129;53.508;10.476;2023-01-25T08:58:15;102944.25;;;-0.76;81.25
75543;BME280;64129;53.508;10.476;2023-01-25T09:00:42;102939.19;;;-0.73;81.23
75543;BME280;64129;53.508;10.476;2023-01-25T09:03:09;102927.69;;;-0.62;81.11
75543;BME280;64129;53.508;10.476;2023-01-25T09:05:38;102932.59;;;-0.98;81.79
75543;BME280;64129;53.508;10.476;2023-01-25T09:08:06;102929.78;;;-0.86;82.16
75543;BME280;64129;53.508;10.476;2023-01-25T09:10:34;102932.34;;;-0.71;81.28
75543;BME280;64129;53.508;10.476;2023-01-25T09:13:00;102927.13;;;-0.56;81.55
75543;BME280;64129;53.508;10.476;2023-01-25T09:15:27;102927.34;;;-0.68;81.11
75543;BME280;64129;53.508;10.476;2023-01-25T09:17:55;102910.34;;;-0.76;81.67
75543;BME280;64129;53.508;10.476;2023-01-25T09:20:22;102903.88;;;-0.68;81.53
75543;BME280;64129;53.508;10.476;2023-01-25T09:22:49;102898.00;;;-0.79;81.64
75543;BME280;64129;53.508;10.476;2023-01-25T09:25:16;102910.59;;;-0.57;81.32
75543;BME280;64129;53.508;10.476;2023-01-25T09:27:42;102906.66;;;-0.65;81.30
75543;BME280;64129;53.508;10.476;2023-01-25T09:30:09;102910.88;;;-0.82;81.92
75543;BME280;64129;53.508;10.476;2023-01-25T09:32:44;102903.41;;;-0.76;81.91
75543;BME280;64129;53.508;10.476;2023-01-25T09:35:11;102903.75;;;-0.55;81.31
75543;BME280;64129;53.508;10.476;2023-01-25T09:37:37;102914.56;;;-0.64;81.29
75543;BME280;64129;53.508;10.476;2023-01-25T09:40:05;102902.84;;;-0.55;80.66
75543;BME280;64129;53.508;10.476;2023-01-25T09:42:42;102904.03;;;-0.65;81.28
75543;BME280;64129;53.508;10.476;2023-01-25T09:53:38;102891.72;;;-0.82;81.81
75543;BME280;64129;53.508;10.476;2023-01-25T09:56:33;102892.88;;;-0.63;81.17
75543;BME280;64129;53.508;10.476;2023-01-25T09:59:09;102890.22;;;-0.48;80.54
75543;BME280;64129;53.508;10.476;2023-01-25T10:01:47;102878.94;;;-0.63;81.05
75543;BME280;64129;53.508;10.476;2023-01-25T10:04:15;102883.97;;;-0.66;81.33
75543;BME280;64129;53.508;10.476;2023-01-25T10:06:47;102876.09;;;-0.82;81.36
75543;BME280;64129;53.508;10.476;2023-01-25T10:12:25;102884.41;;;-0.73;81.01
75543;BME280;64129;53.508;10.476;2023-01-25T10:14:51;102872.84;;;-0.78;81.64
75543;BME280;64129;53.508;10.476;2023-01-25T10:17:26;102871.75;;;-0.67;81.38
75543;BME280;64129;53.508;10.476;2023-01-25T10:22:59;102866.88;;;-0.61;81.16
75543;BME280;64129;53.508;10.476;2023-01-25T10:25:33;102860.41;;;-0.68;80.87
75543;BME280;64129;53.508;10.476;2023-01-25T10:28:12;102856.94;;;-0.52;80.70
75543;BME280;64129;53.508;10.476;2023-01-25T10:33:20;102844.78;;;-0.51;80.84
75543;BME280;64129;53.508;10.476;2023-01-25T10:35:48;102843.06;;;-0.82;81.29
75543;BME280;64129;53.508;10.476;2023-01-25T10:38:30;102835.72;;;-0.58;81.46
75543;BME280;64129;53.508;10.476;2023-01-25T10:41:08;102822.19;;;-0.51;80.73
75543;BME280;64129;53.508;10.476;2023-01-25T10:43:37;102820.25;;;-0.55;81.14
75543;BME280;64129;53.508;10.476;2023-01-25T10:46:18;102817.63;;;-0.39;80.22
75543;BME280;64129;53.508;10.476;2023-01-25T10:48:46;102818.81;;;-0.34;80.14
75543;BME280;64129;53.508;10.476;2023-01-25T10:51:30;102814.22;;;-0.38;80.52
75543;BME280;64129;53.508;10.476;2023-01-25T10:54:01;102814.78;;;-0.59;80.74
75543;BME280;64129;53.508;10.476;2023-01-25T10:56:29;102805.41;;;-0.40;80.38
75543;BME280;64129;53.508;10.476;2023-01-25T10:59:06;102802.53;;;-0.44;80.03
75543;BME280;64129;53.508;10.476;2023-01-25T11:01:35;102806.22;;;-0.41;79.89
75543;BME280;64129;53.508;10.476;2023-01-25T11:04:02;102801.03;;;-0.24;80.19
75543;BME280;64129;53.508;10.476;2023-01-25T11:06:48;102808.78;;;-0.26;80.07
75543;BME280;64129;53.508;10.476;2023-01-25T11:12:16;102786.19;;;-0.25;80.38
75543;BME280;64129;53.508;10.476;2023-01-25T11:14:45;102778.34;;;-0.25;79.88
75543;BME280;64129;53.508;10.476;2023-01-25T11:17:27;102781.78;;;-0.26;80.16
75543;BME280;64129;53.508;10.476;2023-01-25T11:20:25;102765.94;;;-0.29;80.25
75543;BME280;64129;53.508;10.476;2023-01-25T11:22:54;102774.59;;;-0.30;80.64
75543;BME280;64129;53.508;10.476;2023-01-25T11:25:27;102755.75;;;-0.25;80.39
75543;BME280;64129;53.508;10.476;2023-01-25T11:30:44;102740.16;;;-0.23;79.92
75543;BME280;64129;53.508;10.476;2023-01-25T11:33:12;102731.66;;;-0.19;79.56
75543;BME280;64129;53.508;10.476;2023-01-25T11:38:38;102724.84;;;-0.34;79.60
75543;BME280;64129;53.508;10.476;2023-01-25T11:47:05;102703.31;;;-0.29;79.91
75543;BME280;64129;53.508;10.476;2023-01-25T11:49:46;102693.78;;;-0.11;79.81
75543;BME280;64129;53.508;10.476;2023-01-25T11:52:47;102682.59;;;-0.09;79.17
75543;BME280;64129;53.508;10.476;2023-01-25T11:55:30;102670.44;;;-0.08;79.71
75543;BME280;64129;53.508;10.476;2023-01-25T11:58:19;102667.66;;;-0.29;79.93
75543;BME280;64129;53.508;10.476;2023-01-25T12:01:00;102658.03;;;0.04;79.23
75543;BME280;64129;53.508;10.476;2023-01-25T12:06:36;102662.00;;;-0.03;78.93
75543;BME280;64129;53.508;10.476;2023-01-25T12:09:32;102654.25;;;-0.19;79.67
75543;BME280;64129;53.508;10.476;2023-01-25T12:22:48;102625.38;;;-0.38;79.95
75543;BME280;64129;53.508;10.476;2023-01-25T12:28:09;102612.78;;;-0.47;80.27
75543;BME280;64129;53.508;10.476;2023-01-25T12:33:24;102601.63;;;-0.60;80.95
75543;BME280;64129;53.508;10.476;2023-01-25T12:36:05;102595.16;;;-0.35;80.32
75543;BME280;64129;53.508;10.476;2023-01-25T12:41:07;102586.44;;;-0.17;79.60
75543;BME280;64129;53.508;10.476;2023-01-25T12:43:43;102568.31;;;-0.14;79.42
75543;BME280;64129;53.508;10.476;2023-01-25T12:46:23;102564.34;;;-0.06;79.11
75543;BME280;64129;53.508;10.476;2023-01-25T12:48:53;102561.44;;;-0.12;79.19
75543;BME280;64129;53.508;10.476;2023-01-25T12:51:33;102561.88;;;-0.21;79.52
75543;BME280;64129;53.508;10.476;2023-01-25T12:54:05;102549.13;;;-0.15;79.53
75543;BME280;64129;53.508;10.476;2023-01-25T12:56:41;102553.22;;;-0.02;79.04
75543;BME280;64129;53.508;10.476;2023-01-25T12:59:17;102541.38;;;-0.13;79.20
75543;BME280;64129;53.508;10.476;2023-01-25T13:01:57;102547.13;;;-0.20;79.29
75543;BME280;64129;53.508;10.476;2023-01-25T13:04:48;102541.47;;;-0.29;79.27
75543;BME280;64129;53.508;10.476;2023-01-25T13:07:29;102531.75;;;-0.14;78.91
75543;BME280;64129;53.508;10.476;2023-01-25T13:10:19;102536.44;;;-0.07;79.12
75543;BME280;64129;53.508;10.476;2023-01-25T13:12:51;102535.94;;;-0.18;79.49
75543;BME280;64129;53.508;10.476;2023-01-25T13:15:43;102545.16;;;-0.42;79.16
75543;BME280;64129;53.508;10.476;2023-01-25T13:18:34;102539.53;;;-0.34;79.40
75543;BME280;64129;53.508;10.476;2023-01-25T13:21:03;102537.91;;;-0.66;80.52
75543;BME280;64129;53.508;10.476;2023-01-25T13:23:40;102530.25;;;-0.45;80.20
75543;BME280;64129;53.508;10.476;2023-01-25T13:28:55;102528.00;;;-0.55;80.64
75543;BME280;64129;53.508;10.476;2023-01-25T13:31:45;102530.53;;;-0.39;80.11
75543;BME280;64129;53.508;10.476;2023-01-25T13:39:48;102518.69;;;-0.50;80.67
75543;BME280;64129;53.508;10.476;2023-01-25T13:42:36;102505.47;;;-0.35;80.02
75543;BME280;64129;53.508;10.476;2023-01-25T13:47:37;102506.31;;;-0.18;79.44
75543;BME280;64129;53.508;10.476;2023-01-25T13:50:23;102502.97;;;-0.34;80.30
75543;BME280;64129;53.508;10.476;2023-01-25T13:53:04;102504.75;;;-0.50;80.65
75543;BME280;64129;53.508;10.476;2023-01-25T13:55:40;102499.38;;;-0.53;80.84
75543;BME280;64129;53.508;10.476;2023-01-25T14:00:54;102490.56;;;-0.38;80.87
75543;BME280;64129;53.508;10.476;2023-01-25T14:03:54;102496.38;;;-0.43;80.75
75543;BME280;64129;53.508;10.476;2023-01-25T14:06:29;102494.91;;;-0.20;80.53
75543;BME280;64129;53.508;10.476;2023-01-25T14:09:00;102485.28;;;-0.21;79.63